Montford, Virginia
Current Conditions -  °F | °C
As of 11:15 AM on Thursday 23 Oct 2014 (Local Time) from KOMH Reporting Station
Clear Clear  
Wind Chill: 63°   Ceiling: Unl
Heat Index: 63°   Visibility: 10mi
Dew Point: 45°   Wind: 13mph
Humidity: 52%   Direction: 330°NNW
Pressure: 29.96"   Gusts: 18mph
Location:  38.216°N, 78.057°W
Report Text: KOMH 231515Z AUTO 33011G16KT 10SM CLR 17/07 A2996 RMK AO2
Loading
Personal Weather Stations






























Interactive Weather Map
Tropical Storm Tracking
New forecast layout! Learn more

10-Day Weather Forecast

Advertisements
Track Severe Weather on mobile